Time;durP1;ratioP1;P1;durP2;ratioP2;P2;SDS_P1;SDS_P2;PMS_P1;PMS_P2;Temp;Humidity;BMP_temperature;BMP_pressure;BME280_temperature;BME280_humidity;BME280_pressure;Samples;Min_cycle;Max_cycle;Signal;HPM_P1;HPM_P2
2021/09/12 04:20:31;;;;;;;;;17.50;14.25;;;;;20.61;47.22;98806.28;6971637;22;98578;-64
2021/09/12 04:23:37;;;;;;;;;18.40;16.60;;;;;20.69;46.88;98822.09;6089048;28;96811;-62
2021/09/12 04:26:40;;;;;;;;;17.00;15.00;;;;;20.68;47.02;98828.66;6088746;28;98104;-64
2021/09/12 04:29:44;;;;;;;;;15.00;13.80;;;;;20.74;46.83;98822.03;6070593;28;98595;-64
2021/09/12 04:32:47;;;;;;;;;17.00;15.00;;;;;20.75;46.69;98820.13;6072725;28;97205;-62
2021/09/12 04:35:52;;;;;;;;;15.60;14.00;;;;;20.79;47.05;98832.13;6059114;28;97244;-65
2021/09/12 04:38:56;;;;;;;;;18.50;17.00;;;;;20.84;46.78;98826.59;6089961;28;97181;-64
2021/09/12 04:41:59;;;;;;;;;16.00;16.00;;;;;20.93;46.49;98826.75;6091583;28;97654;-62
2021/09/12 04:45:04;;;;;;;;;16.00;14.00;;;;;20.98;46.44;98824.78;6073979;28;97067;-61
2021/09/12 04:48:08;;;;;;;;;18.00;17.00;;;;;21.02;46.45;98831.31;6074154;28;96953;-61
2021/09/12 04:51:12;;;;;;;;;18.00;16.00;;;;;21.04;46.37;98828.28;6089798;28;97612;-64
2021/09/12 04:54:15;;;;;;;;;18.00;16.40;;;;;21.09;46.37;98826.31;6069771;28;98128;-65
2021/09/12 04:57:19;;;;;;;;;17.00;16.50;;;;;21.20;46.31;98820.75;6089039;28;96625;-65
2021/09/12 05:00:22;;;;;;;;;18.00;16.40;;;;;21.27;46.29;98823.94;6088959;28;96805;-64
2021/09/12 05:03:25;;;;;;;;;14.00;14.00;;;;;21.31;46.32;98830.47;6089039;28;97204;-63
2021/09/12 05:06:30;;;;;;;;;16.80;16.00;;;;;21.43;45.66;98823.47;6072198;28;98612;-62
2021/09/12 05:09:33;;;;;;;;;15.00;13.00;;;;;21.52;45.98;98821.69;6089054;28;98125;-62
2021/09/12 05:12:36;;;;;;;;;16.00;15.00;;;;;21.63;45.77;98816.06;6090005;28;97103;-62
2021/09/12 05:15:42;;;;;;;;;18.80;16.80;;;;;21.75;45.33;98819.19;6089345;28;96785;-65
2021/09/12 05:18:46;;;;;;;;;17.40;15.80;;;;;21.87;45.33;98825.06;6089949;28;97761;-65
2021/09/12 05:21:50;;;;;;;;;15.60;14.60;;;;;21.99;45.00;98820.00;6090056;28;97398;-64
2021/09/12 05:24:54;;;;;;;;;13.20;13.00;;;;;22.10;44.77;98826.94;6090784;28;97731;-62
2021/09/12 05:27:57;;;;;;;;;19.40;18.00;;;;;22.13;44.56;98787.91;6078349;28;97285;-62
2021/09/12 05:31:00;;;;;;;;;15.00;14.00;;;;;22.49;44.39;98832.06;6073519;28;98645;-64
2021/09/12 05:34:04;;;;;;;;;16.00;15.00;;;;;22.53;44.06;98824.84;6090829;28;97501;-61
2021/09/12 05:37:09;;;;;;;;;20.20;17.00;;;;;22.70;43.66;98832.53;6075384;28;96655;-62
2021/09/12 05:40:13;;;;;;;;;15.40;14.40;;;;;22.82;43.72;98835.66;6089487;28;98025;-64
2021/09/12 05:43:17;;;;;;;;;15.60;14.00;;;;;22.85;43.48;98844.09;6088618;28;96528;-61
2021/09/12 05:46:20;;;;;;;;;15.00;14.40;;;;;23.02;43.18;98842.72;6092770;28;96736;-62
2021/09/12 05:49:24;;;;;;;;;15.00;13.00;;;;;23.11;43.17;98844.44;6090211;28;96681;-64
2021/09/12 05:52:29;;;;;;;;;16.00;15.00;;;;;23.16;42.70;98840.78;6089904;28;97348;-63
2021/09/12 05:55:32;;;;;;;;;16.80;15.80;;;;;23.19;42.53;98846.47;6073060;28;97805;-62
2021/09/12 05:58:35;;;;;;;;;16.80;14.00;;;;;23.18;42.50;98849.53;6072820;28;97370;-63
2021/09/12 06:01:39;;;;;;;;;17.00;16.00;;;;;23.19;42.49;98842.91;6072641;28;96701;-63
2021/09/12 06:04:42;;;;;;;;;14.00;13.00;;;;;23.25;42.73;98841.69;6090392;28;98053;-60
2021/09/12 06:07:48;;;;;;;;;16.33;15.33;;;;;23.27;42.66;98836.69;6072854;28;97307;-62
2021/09/12 06:10:51;;;;;;;;;16.80;16.00;;;;;23.40;42.96;98841.41;6090517;28;96607;-62
2021/09/12 06:13:54;;;;;;;;;17.00;15.25;;;;;23.50;42.34;98840.41;6084817;28;96803;-62
2021/09/12 06:16:57;;;;;;;;;17.20;16.00;;;;;23.61;42.34;98844.53;6087768;28;97247;-62
2021/09/12 06:20:01;;;;;;;;;18.00;17.00;;;;;23.78;42.42;98850.25;6093924;28;96864;-63
2021/09/12 06:23:06;;;;;;;;;15.00;14.00;;;;;23.87;41.94;98848.38;6110061;28;97353;-62
2021/09/12 06:26:09;;;;;;;;;17.75;15.75;;;;;23.98;41.91;98843.47;6109883;28;97153;-63
2021/09/12 06:29:13;;;;;;;;;16.50;15.50;;;;;24.17;41.53;98855.97;6109949;28;97576;-62
2021/09/12 06:32:16;;;;;;;;;16.00;16.00;;;;;24.33;41.34;98850.94;6109985;28;97338;-61
2021/09/12 06:35:19;;;;;;;;;15.00;14.00;;;;;24.56;41.15;98860.81;6108978;28;97418;-62
2021/09/12 06:38:24;;;;;;;;;15.25;14.25;;;;;24.73;41.00;98851.03;6111815;28;96626;-62
2021/09/12 06:41:27;;;;;;;;;17.00;16.00;;;;;24.89;40.66;98855.84;6109898;28;96697;-62
2021/09/12 06:44:31;;;;;;;;;20.00;18.40;;;;;25.01;40.30;98858.84;6096372;28;97324;-63
2021/09/12 06:47:34;;;;;;;;;17.00;14.00;;;;;25.15;40.18;98852.41;6112864;28;97556;-63
2021/09/12 06:50:37;;;;;;;;;17.00;16.00;;;;;25.29;40.01;98858.63;6118074;28;96846;-63
2021/09/12 06:53:42;;;;;;;;;17.00;16.00;;;;;25.48;40.07;98858.38;6101678;28;97290;-65
2021/09/12 06:56:45;;;;;;;;;15.00;14.40;;;;;25.59;39.95;98854.22;6123793;28;96834;-63
2021/09/12 06:59:48;;;;;;;;;15.75;15.00;;;;;25.66;39.50;98857.31;6117211;28;97521;-63
2021/09/12 07:02:52;;;;;;;;;18.60;16.00;;;;;25.90;39.00;98856.91;6114213;28;98089;-60
2021/09/12 07:05:56;;;;;;;;;16.20;15.20;;;;;26.21;38.79;98863.09;6083699;28;97746;-60
2021/09/12 07:09:01;;;;;;;;;17.00;15.00;;;;;26.53;38.43;98859.88;6112653;28;97617;-60
2021/09/12 07:12:04;;;;;;;;;14.67;13.67;;;;;26.87;38.08;98859.03;6107069;28;97359;-60
2021/09/12 07:15:17;;;;;;;;;17.00;15.00;;;;;27.12;37.69;98858.09;6103382;28;97551;-61
2021/09/12 07:18:21;;;;;;;;;15.00;14.75;;;;;27.37;36.97;98859.16;6101660;28;97642;-61
2021/09/12 07:21:24;;;;;;;;;17.33;15.33;;;;;27.69;36.71;98866.03;6114446;28;98276;-59
2021/09/12 07:24:28;;;;;;;;;16.60;15.00;;;;;28.13;36.14;98874.91;6091874;28;97611;-61
2021/09/12 07:27:32;;;;;;;;;17.40;16.60;;;;;28.32;35.48;98884.38;6101913;28;97707;-60
2021/09/12 07:30:44;;;;;;;;;16.80;15.80;;;;;28.59;35.49;98882.19;6113588;28;96936;-60
2021/09/12 07:33:47;;;;;;;;;15.00;13.00;;;;;28.84;35.02;98884.72;6114486;28;98258;-60
2021/09/12 07:36:50;;;;;;;;;17.00;16.00;;;;;29.09;35.45;98882.03;6116404;28;97497;-59
2021/09/12 07:39:55;;;;;;;;;16.40;16.40;;;;;29.38;34.43;98879.09;6117368;28;96972;-59
2021/09/12 07:43:01;;;;;;;;;17.00;16.00;;;;;29.77;33.53;98885.91;6117246;28;96777;-61
2021/09/12 07:46:04;;;;;;;;;17.80;17.60;;;;;30.02;32.84;98883.97;6097739;28;97912;-61
2021/09/12 07:49:07;;;;;;;;;17.50;16.50;;;;;30.37;33.15;98895.34;6115325;28;97964;-59
2021/09/12 07:52:11;;;;;;;;;17.00;17.00;;;;;30.75;32.10;98892.09;6113436;28;97434;-61
2021/09/12 07:55:16;;;;;;;;;16.20;15.60;;;;;30.92;31.66;98891.81;6114744;28;97469;-61
2021/09/12 07:58:19;;;;;;;;;18.00;17.00;;;;;31.16;31.96;98900.06;6116873;28;96665;-61
2021/09/12 08:01:23;;;;;;;;;20.40;18.40;;;;;31.41;31.26;98886.78;6115876;28;97736;-60
2021/09/12 08:04:26;;;;;;;;;18.00;16.40;;;;;31.55;30.84;98889.91;6117040;28;96840;-61
2021/09/12 08:07:30;;;;;;;;;18.75;17.75;;;;;31.61;30.64;98885.72;6114611;28;96843;-61
2021/09/12 08:10:35;;;;;;;;;20.00;18.20;;;;;31.83;30.21;98889.81;6115916;28;96658;-61
2021/09/12 08:13:38;;;;;;;;;19.40;17.40;;;;;31.94;29.94;98885.31;6116858;28;96836;-60
2021/09/12 08:16:41;;;;;;;;;22.50;19.75;;;;;32.02;29.98;98883.47;6115838;28;97367;-61
2021/09/12 08:19:44;;;;;;;;;19.80;18.00;;;;;32.27;29.68;98886.84;6116252;28;96452;-60
2021/09/12 08:22:48;;;;;;;;;18.75;17.75;;;;;32.54;29.48;98886.66;6115685;28;96603;-61
2021/09/12 08:25:53;;;;;;;;;18.00;16.40;;;;;32.77;28.76;98885.94;6114911;28;97347;-61
2021/09/12 08:28:56;;;;;;;;;18.40;17.40;;;;;33.05;28.60;98887.28;6114843;28;97099;-61
2021/09/12 08:32:00;;;;;;;;;19.00;19.00;;;;;33.21;28.42;98887.22;6114587;28;96835;-60
2021/09/12 08:35:03;;;;;;;;;18.40;18.00;;;;;33.49;28.32;98890.50;6115690;28;97501;-61
2021/09/12 08:38:07;;;;;;;;;18.80;16.80;;;;;33.72;28.14;98898.13;6115107;28;98082;-61
2021/09/12 08:41:12;;;;;;;;;19.40;17.60;;;;;33.91;28.23;98890.44;6115057;28;97391;-61
2021/09/12 08:44:21;;;;;;;;;21.00;18.00;;;;;34.24;27.79;98892.53;6114831;28;97173;-61
2021/09/12 08:47:26;;;;;;;;;19.00;18.40;;;;;34.53;27.66;98887.31;6114774;28;97742;-60
2021/09/12 08:50:29;;;;;;;;;18.00;17.00;;;;;34.84;27.85;98900.94;6114965;28;96673;-61
2021/09/12 08:53:33;;;;;;;;;18.60;17.60;;;;;35.10;27.36;98886.78;6114919;28;97557;-61
2021/09/12 08:56:37;;;;;;;;;17.80;16.80;;;;;35.18;26.87;98887.72;6114961;28;98161;-62
2021/09/12 08:59:40;;;;;;;;;20.60;20.00;;;;;35.37;26.93;98886.69;6114959;28;97225;-61
2021/09/12 09:02:44;;;;;;;;;17.80;17.20;;;;;35.71;26.19;98888.22;6114659;28;97442;-59
2021/09/12 09:05:50;;;;;;;;;16.00;16.00;;;;;35.94;25.89;98879.56;6096561;28;97745;-61
2021/09/12 09:08:55;;;;;;;;;18.00;17.00;;;;;35.98;25.70;98885.97;6114334;28;96648;-60
2021/09/12 09:12:00;;;;;;;;;18.00;16.00;;;;;36.09;26.79;98880.44;6113845;28;96755;-60
2021/09/12 09:15:14;;;;;;;;;17.00;16.40;;;;;36.28;26.17;98880.19;6097747;28;97398;-59
2021/09/12 09:18:18;;;;;;;;;16.80;16.00;;;;;36.60;25.59;98878.34;6114266;28;97108;-61
2021/09/12 09:21:27;;;;;;;;;19.00;18.00;;;;;36.63;25.32;98876.75;6114216;28;97525;-60
2021/09/12 09:24:30;;;;;;;;;16.60;15.60;;;;;36.55;25.47;98881.53;6097088;28;96627;-62
2021/09/12 09:27:55;;;;;;;;;17.20;16.60;;;;;36.15;25.54;98876.91;6113609;28;97040;-61
2021/09/12 09:30:59;;;;;;;;;17.40;15.40;;;;;36.14;26.10;98872.50;6114897;28;96747;-61
2021/09/12 09:34:17;;;;;;;;;19.00;17.00;;;;;36.07;26.04;98872.41;6114443;28;97454;-61
2021/09/12 09:37:22;;;;;;;;;18.40;17.40;;;;;36.03;25.85;98871.59;6114168;28;96649;-61
2021/09/12 09:40:26;;;;;;;;;17.00;16.33;;;;;36.14;25.71;98874.50;6113195;28;96949;-60
2021/09/12 09:43:48;;;;;;;;;19.00;18.00;;;;;35.93;25.92;98875.13;6112233;28;97320;-61
2021/09/12 09:46:53;;;;;;;;;16.75;16.75;;;;;35.45;26.12;98874.34;6111062;28;97725;-61
2021/09/12 09:50:12;;;;;;;;;16.60;15.20;;;;;35.08;27.28;98868.75;6114384;28;97938;-61
2021/09/12 09:53:15;;;;;;;;;17.40;16.00;;;;;35.01;27.40;98866.69;6096082;28;96681;-61
2021/09/12 09:56:18;;;;;;;;;18.50;17.00;;;;;34.99;27.19;98868.28;6112848;28;97498;-61
2021/09/12 09:59:25;;;;;;;;;14.60;14.00;;;;;35.13;26.96;98844.00;6114202;28;97193;-61
2021/09/12 10:02:29;;;;;;;;;16.00;15.00;;;;;35.66;26.53;98849.31;6092175;28;97038;-60
2021/09/12 10:05:33;;;;;;;;;18.25;16.25;;;;;36.10;25.96;98862.41;6113857;28;96682;-61
2021/09/12 10:08:36;;;;;;;;;15.75;15.50;;;;;36.43;25.38;98856.59;6095458;28;96984;-62
2021/09/12 10:11:42;;;;;;;;;19.00;17.40;;;;;36.28;25.74;98857.72;6113433;28;98134;-61
2021/09/12 10:14:51;;;;;;;;;17.60;16.60;;;;;36.42;26.01;98854.97;6114083;28;96619;-61
2021/09/12 10:17:55;;;;;;;;;17.00;16.20;;;;;36.80;25.31;98854.34;6096841;28;97356;-61
2021/09/12 10:21:22;;;;;;;;;18.50;17.00;;;;;37.17;25.07;98847.63;6113553;28;96658;-60
2021/09/12 10:24:25;;;;;;;;;16.00;15.00;;;;;37.22;24.86;98850.84;6115457;28;98057;-62
2021/09/12 10:27:35;;;;;;;;;15.40;15.00;;;;;37.48;24.38;98851.66;6117603;28;97335;-61
2021/09/12 10:30:41;;;;;;;;;14.00;13.60;;;;;37.79;24.54;98848.03;6118409;28;96585;-60
2021/09/12 10:34:03;;;;;;;;;17.50;14.00;;;;;37.92;23.82;98845.63;6118747;28;97541;-60
2021/09/12 10:37:31;;;;;;;;;17.20;15.00;;;;;37.91;23.54;98850.44;6117673;28;96527;-61
2021/09/12 10:41:16;;;;;;;;;16.00;15.50;;;;;37.88;23.83;98814.66;6100914;28;96810;-62
2021/09/12 10:44:19;;;;;;;;;15.00;13.80;;;;;38.04;23.39;98836.75;6083158;28;97164;-62
2021/09/12 10:47:25;;;;;;;;;15.00;14.50;;;;;38.07;23.93;98830.34;6117259;28;97743;-61
2021/09/12 10:50:43;;;;;;;;;12.25;12.25;;;;;38.02;22.81;98830.75;6117207;28;97738;-61
2021/09/12 10:54:00;;;;;;;;;13.00;12.00;;;;;38.00;23.73;98827.53;6117672;28;97462;-61
2021/09/12 10:57:06;;;;;;;;;15.25;15.00;;;;;38.12;23.11;98827.88;6107288;28;97102;-61
2021/09/12 11:00:11;;;;;;;;;15.00;14.60;;;;;38.26;23.39;98824.25;6099194;28;96646;-62
2021/09/12 11:03:17;;;;;;;;;15.50;15.00;;;;;38.34;23.75;98828.63;6100722;28;97596;-62
2021/09/12 11:06:21;;;;;;;;;14.40;14.00;;;;;38.25;23.39;98817.00;6117746;28;97482;-63
2021/09/12 11:09:27;;;;;;;;;15.00;13.20;;;;;38.14;23.72;98811.41;6116909;28;98093;-63
2021/09/12 11:12:31;;;;;;;;;14.00;13.60;;;;;38.06;23.93;98811.84;6117172;28;96701;-62
2021/09/12 11:15:35;;;;;;;;;14.00;13.00;;;;;38.11;23.83;98811.41;6099107;28;96973;-63
2021/09/12 11:18:45;;;;;;;;;14.00;14.00;;;;;38.27;24.41;98810.97;6117754;28;96403;-62
2021/09/12 11:21:50;;;;;;;;;14.80;14.00;;;;;38.53;23.45;98804.81;6117252;28;96606;-63
2021/09/12 11:25:01;;;;;;;;;15.00;14.20;;;;;38.64;23.34;98797.13;6118312;28;97321;-62
2021/09/12 11:28:05;;;;;;;;;14.40;14.00;;;;;38.84;23.42;98789.75;6111883;28;96759;-62
2021/09/12 11:31:09;;;;;;;;;13.20;13.20;;;;;39.00;22.23;98795.69;6117960;28;97267;-63
2021/09/12 11:34:14;;;;;;;;;12.75;11.75;;;;;39.29;22.61;98789.84;6115939;28;96533;-63
2021/09/12 11:37:22;;;;;;;;;13.20;10.20;;;;;39.37;21.62;98788.59;6116176;28;97570;-63
2021/09/12 11:40:25;;;;;;;;;13.75;13.00;;;;;39.53;21.75;98791.66;6112359;28;97457;-63
2021/09/12 11:43:29;;;;;;;;;14.00;13.00;;;;;39.57;22.38;98786.78;6113195;28;97690;-64
2021/09/12 11:46:32;;;;;;;;;12.00;12.00;;;;;39.53;21.93;98780.38;6098587;28;98451;-63
2021/09/12 11:49:38;;;;;;;;;15.00;15.00;;;;;39.63;21.82;98778.66;6098973;28;97432;-64
2021/09/12 11:52:42;;;;;;;;;14.00;14.00;;;;;39.72;22.05;98774.13;6117628;28;97486;-62
2021/09/12 11:55:46;;;;;;;;;11.00;11.00;;;;;39.80;21.31;98760.75;6115771;28;97123;-62
2021/09/12 11:58:49;;;;;;;;;11.00;10.00;;;;;39.68;21.81;98767.72;6113033;28;97426;-63
2021/09/12 12:01:54;;;;;;;;;14.00;13.25;;;;;39.61;21.25;98759.31;6115492;28;96579;-63
2021/09/12 12:05:00;;;;;;;;;12.00;12.00;;;;;39.54;21.03;98759.38;6116129;28;96695;-63
2021/09/12 12:08:05;;;;;;;;;12.20;12.00;;;;;39.43;21.40;98753.06;6083570;28;97329;-62
2021/09/12 12:11:08;;;;;;;;;10.00;9.20;;;;;39.33;20.64;98751.16;6116222;28;97603;-63
2021/09/12 12:14:19;;;;;;;;;14.40;12.60;;;;;39.19;20.63;98748.44;6116022;28;97494;-62
2021/09/12 12:17:25;;;;;;;;;12.00;11.00;;;;;39.07;20.82;98729.19;6116857;28;96614;-63
2021/09/12 12:20:36;;;;;;;;;12.00;11.00;;;;;39.04;21.21;98736.47;6098409;28;97498;-62
2021/09/12 12:23:41;;;;;;;;;11.00;11.00;;;;;39.00;20.76;98730.03;6098541;28;97480;-64
2021/09/12 12:26:47;;;;;;;;;12.80;12.00;;;;;38.90;21.08;98730.97;6117245;28;96691;-62
2021/09/12 12:29:59;;;;;;;;;13.60;13.00;;;;;38.86;21.38;98721.66;6115689;28;97258;-63
2021/09/12 12:33:04;;;;;;;;;12.80;12.20;;;;;38.79;22.02;98730.19;6097587;28;96664;-63
2021/09/12 12:36:10;;;;;;;;;15.60;15.60;;;;;38.60;21.92;98728.72;6116213;28;97381;-63
2021/09/12 12:39:16;;;;;;;;;13.40;13.00;;;;;38.59;21.90;98727.13;6115961;28;97052;-62
2021/09/12 12:42:19;;;;;;;;;13.50;13.00;;;;;38.36;22.23;98730.44;6116801;28;96852;-63
2021/09/12 12:45:25;;;;;;;;;13.60;13.40;;;;;38.11;22.86;98713.69;6115633;28;98142;-62
2021/09/12 12:48:29;;;;;;;;;16.00;16.00;;;;;38.01;22.85;98713.72;6097350;28;96714;-63
2021/09/12 12:51:33;;;;;;;;;14.00;13.00;;;;;37.88;23.87;98709.72;6114842;28;97633;-63
2021/09/12 12:54:38;;;;;;;;;16.40;16.40;;;;;37.37;23.65;98713.06;6096895;28;98983;-63
2021/09/12 12:57:45;;;;;;;;;15.00;14.00;;;;;37.27;24.38;98700.63;6114863;28;96567;-63
2021/09/12 13:00:52;;;;;;;;;15.20;13.60;;;;;37.02;24.03;98711.06;6115624;28;97598;-60
2021/09/12 13:03:56;;;;;;;;;13.25;12.00;;;;;36.98;23.70;98693.41;6098168;28;97759;-62
2021/09/12 13:07:01;;;;;;;;;13.00;13.00;;;;;36.91;24.04;98705.44;6113952;28;97453;-63
2021/09/12 13:10:05;;;;;;;;;13.20;13.20;;;;;36.82;23.63;98710.66;6113449;28;96636;-61
2021/09/12 13:13:09;;;;;;;;;12.00;12.00;;;;;36.69;23.92;98699.03;6113461;28;96884;-62
2021/09/12 13:16:20;;;;;;;;;11.00;11.00;;;;;36.73;24.23;98708.25;6111562;28;96736;-62
2021/09/12 13:19:24;;;;;;;;;12.00;12.00;;;;;36.67;24.18;98712.66;6113207;28;96631;-62
2021/09/12 13:22:29;;;;;;;;;10.00;9.00;;;;;36.54;23.60;98710.59;6111544;28;96873;-63
2021/09/12 13:25:32;;;;;;;;;12.00;11.25;;;;;36.46;24.43;98707.78;6113536;28;96581;-61
2021/09/12 13:28:36;;;;;;;;;11.00;10.00;;;;;36.44;23.86;98700.97;6111434;28;97485;-63
2021/09/12 13:31:41;;;;;;;;;11.60;11.40;;;;;36.34;24.61;98704.56;6092566;28;96764;-62
2021/09/12 13:34:45;;;;;;;;;12.40;12.00;;;;;35.95;25.32;98699.59;6112931;28;97146;-62
2021/09/12 13:37:50;;;;;;;;;13.00;12.00;;;;;35.77;25.63;98701.53;6109839;28;97578;-62
2021/09/12 13:40:53;;;;;;;;;14.00;13.40;;;;;35.57;25.78;98684.16;6110767;28;97020;-62
2021/09/12 13:43:57;;;;;;;;;13.00;12.75;;;;;35.75;26.19;98691.88;6113409;28;97425;-62
2021/09/12 13:47:00;;;;;;;;;13.80;13.00;;;;;35.73;26.22;98699.88;6112089;28;96459;-60
2021/09/12 13:50:04;;;;;;;;;15.00;13.00;;;;;35.62;26.34;98689.41;6110820;28;97547;-63
2021/09/12 13:53:08;;;;;;;;;13.00;12.00;;;;;35.66;26.00;98692.25;6112323;28;96598;-62
2021/09/12 13:56:12;;;;;;;;;14.00;13.00;;;;;35.67;26.26;98687.44;6113077;28;96858;-62
2021/09/12 13:59:15;;;;;;;;;11.00;10.00;;;;;35.66;25.28;98694.25;6093740;28;99436;-62
2021/09/12 14:02:18;;;;;;;;;13.00;12.00;;;;;35.46;25.34;98680.50;6112559;28;97392;-61
2021/09/12 14:05:22;;;;;;;;;11.00;10.00;;;;;35.46;25.59;98683.31;6113868;28;97380;-62
2021/09/12 14:08:26;;;;;;;;;12.00;11.00;;;;;35.50;25.23;98683.31;6111349;28;97484;-60
2021/09/12 14:11:29;;;;;;;;;13.00;12.00;;;;;35.35;25.34;98653.59;6111892;28;97173;-60
2021/09/12 14:14:33;;;;;;;;;12.00;11.75;;;;;35.51;25.76;98682.94;6111825;28;97600;-62
2021/09/12 14:17:36;;;;;;;;;13.40;12.00;;;;;35.45;25.73;98680.88;6109758;28;97752;-62
2021/09/12 14:20:40;;;;;;;;;12.00;11.00;;;;;35.36;25.66;98684.03;6110709;28;97847;-60
2021/09/12 14:23:45;;;;;;;;;12.00;10.60;;;;;35.25;25.97;98685.97;6112105;28;97295;-60
2021/09/12 14:26:48;;;;;;;;;11.60;11.00;;;;;35.19;25.85;98682.72;6092758;28;97814;-60
2021/09/12 14:29:51;;;;;;;;;11.50;11.00;;;;;35.10;26.12;98687.84;6109198;28;97305;-62
2021/09/12 14:32:54;;;;;;;;;10.00;10.00;;;;;35.03;25.69;98679.41;6094643;28;97477;-61
2021/09/12 14:35:58;;;;;;;;;11.00;11.00;;;;;34.97;26.32;98668.94;6112725;28;97513;-60
2021/09/12 14:39:03;;;;;;;;;14.50;13.50;;;;;34.75;26.31;98676.34;6106969;28;97454;-62
2021/09/12 14:42:06;;;;;;;;;12.00;12.00;;;;;34.53;26.82;98671.72;6093845;28;97959;-63
2021/09/12 14:45:11;;;;;;;;;11.00;10.00;;;;;34.36;26.92;98673.97;6112295;28;97305;-61
2021/09/12 14:48:16;;;;;;;;;11.80;11.80;;;;;34.08;27.27;98664.44;6107789;28;96953;-62
2021/09/12 14:51:20;;;;;;;;;11.40;11.40;;;;;34.00;27.21;98679.53;6087921;28;97008;-63
2021/09/12 14:54:26;;;;;;;;;11.00;10.00;;;;;33.76;27.97;98675.25;6110365;28;96576;-62
2021/09/12 14:57:30;;;;;;;;;13.00;12.40;;;;;33.71;28.14;98670.81;6108250;28;96590;-62
2021/09/12 15:00:36;;;;;;;;;10.40;10.40;;;;;33.63;28.95;98676.66;6093065;28;98618;-62
2021/09/12 15:03:40;;;;;;;;;10.00;10.00;;;;;33.63;28.68;98674.66;6108788;28;97624;-62
2021/09/12 15:06:43;;;;;;;;;11.25;10.00;;;;;33.64;28.67;98681.88;6110626;28;97448;-62
2021/09/12 15:09:48;;;;;;;;;11.40;10.00;;;;;33.62;28.69;98678.66;6107248;28;97566;-62
2021/09/12 15:12:51;;;;;;;;;11.20;10.80;;;;;33.64;28.71;98673.47;6114752;28;97751;-64
2021/09/12 15:15:58;;;;;;;;;11.60;11.60;;;;;33.61;28.30;98663.06;6115320;28;96771;-64
2021/09/12 15:19:02;;;;;;;;;11.20;10.00;;;;;33.62;28.98;98669.47;6115617;28;97427;-61
2021/09/12 15:22:05;;;;;;;;;10.00;10.00;;;;;33.50;28.78;98659.31;6112423;28;99076;-64
2021/09/12 15:25:11;;;;;;;;;11.00;10.50;;;;;33.39;28.56;98658.38;6115546;28;96677;-63
2021/09/12 15:28:14;;;;;;;;;10.00;10.00;;;;;33.15;28.45;98658.78;6112559;28;97497;-64
2021/09/12 15:31:17;;;;;;;;;10.60;10.60;;;;;33.02;28.77;98663.78;6109581;28;97470;-62
2021/09/12 15:34:23;;;;;;;;;10.00;9.00;;;;;32.91;28.95;98663.63;6108717;28;98841;-64
2021/09/12 15:37:26;;;;;;;;;7.75;7.00;;;;;32.79;29.10;98663.84;6107310;28;96874;-64
2021/09/12 15:40:31;;;;;;;;;9.00;9.00;;;;;32.61;29.50;98662.69;6111328;28;97760;-63
2021/09/12 15:43:34;;;;;;;;;11.00;10.00;;;;;32.55;30.07;98661.38;6116172;28;96796;-62
2021/09/12 15:46:38;;;;;;;;;10.00;10.00;;;;;32.41;30.64;98655.56;6097026;28;98499;-62
2021/09/12 15:49:41;;;;;;;;;10.00;9.40;;;;;32.23;30.61;98656.06;6110869;28;97575;-63
2021/09/12 15:52:44;;;;;;;;;10.25;10.00;;;;;32.07;30.93;98666.47;6109942;28;96848;-62
2021/09/12 15:55:49;;;;;;;;;12.00;11.00;;;;;31.92;31.12;98663.75;6096151;28;98548;-64
2021/09/12 15:58:53;;;;;;;;;10.20;10.00;;;;;31.80;31.67;98665.56;6094328;28;98534;-63
2021/09/12 16:01:58;;;;;;;;;10.00;9.80;;;;;31.68;31.75;98662.91;6114955;28;96621;-63
2021/09/12 16:05:02;;;;;;;;;12.00;12.00;;;;;31.55;31.86;98661.41;6080290;28;97857;-63
2021/09/12 16:08:05;;;;;;;;;13.00;13.00;;;;;31.42;32.18;98659.94;6097386;28;96843;-64
2021/09/12 16:11:10;;;;;;;;;11.40;10.00;;;;;31.26;32.56;98661.94;6114589;28;97316;-62
2021/09/12 16:14:13;;;;;;;;;10.60;10.00;;;;;31.09;33.44;98665.13;6112820;28;97238;-64
2021/09/12 16:17:17;;;;;;;;;10.00;9.00;;;;;30.92;35.32;98669.91;6111146;28;97217;-64
2021/09/12 16:20:20;;;;;;;;;11.00;11.00;;;;;30.80;35.05;98670.00;6115324;28;96951;-62
2021/09/12 16:23:24;;;;;;;;;14.00;12.40;;;;;30.72;34.84;98667.41;6107509;28;97626;-62
2021/09/12 16:26:28;;;;;;;;;15.00;13.40;;;;;30.60;35.06;98673.03;6096255;28;99348;-64
2021/09/12 16:29:32;;;;;;;;;13.00;12.60;;;;;30.38;34.95;98658.56;6110591;28;97492;-63
2021/09/12 16:32:36;;;;;;;;;12.75;12.75;;;;;30.24;35.86;98669.31;6092613;28;96886;-62
2021/09/12 16:35:40;;;;;;;;;16.00;14.00;;;;;30.07;36.16;98670.44;6114394;28;97244;-62
2021/09/12 16:38:44;;;;;;;;;13.40;13.00;;;;;29.96;36.08;98671.31;6115078;28;97095;-63
2021/09/12 16:41:48;;;;;;;;;14.00;13.00;;;;;29.86;36.01;98666.25;6111720;28;96658;-61
2021/09/12 16:45:27;;;;;;;;;14.50;13.00;;;;;29.75;36.66;98662.34;6113336;28;97471;-60
2021/09/12 16:48:31;;;;;;;;;13.00;13.00;;;;;29.58;36.75;98663.44;6113537;28;97116;-61
2021/09/12 16:51:35;;;;;;;;;14.80;14.00;;;;;29.44;37.61;98663.03;6114612;28;97550;-61
2021/09/12 16:54:38;;;;;;;;;12.00;11.40;;;;;29.32;37.84;98661.13;6113196;28;96693;-61
2021/09/12 16:57:43;;;;;;;;;13.80;13.00;;;;;29.21;37.75;98666.31;6112922;28;97575;-62
2021/09/12 17:00:47;;;;;;;;;14.40;13.60;;;;;29.08;38.08;98664.69;6104239;28;96955;-61
2021/09/12 17:03:50;;;;;;;;;13.33;13.00;;;;;28.95;38.42;98665.84;6114230;28;97121;-62
2021/09/12 17:06:54;;;;;;;;;14.20;14.20;;;;;28.83;38.75;98672.22;6096684;28;96529;-61
2021/09/12 17:09:57;;;;;;;;;15.00;14.50;;;;;28.72;39.54;98675.81;6112072;28;96735;-62
2021/09/12 17:13:02;;;;;;;;;14.25;13.00;;;;;28.59;39.65;98668.63;6113113;28;97186;-62
2021/09/12 17:16:06;;;;;;;;;16.50;15.50;;;;;28.47;39.76;98677.72;6110216;28;96758;-62
2021/09/12 17:19:09;;;;;;;;;14.00;14.00;;;;;28.35;39.84;98667.41;6095084;28;96740;-62
2021/09/12 17:22:26;;;;;;;;;13.25;13.00;;;;;28.23;40.31;98681.25;6114086;28;96618;-62
2021/09/12 17:25:30;;;;;;;;;14.00;12.00;;;;;28.15;40.81;98678.59;6094807;28;97378;-62
2021/09/12 17:28:35;;;;;;;;;17.00;17.00;;;;;28.02;41.04;98686.81;6111282;28;97064;-62
2021/09/12 17:31:39;;;;;;;;;15.00;14.50;;;;;27.92;41.33;98683.66;6113428;28;97448;-62
2021/09/12 17:34:42;;;;;;;;;13.00;12.75;;;;;27.81;41.81;98682.44;6113379;28;96618;-62
2021/09/12 17:37:46;;;;;;;;;12.60;11.00;;;;;27.69;42.35;98685.19;6113521;28;97528;-61
2021/09/12 17:40:49;;;;;;;;;15.20;13.20;;;;;27.52;42.62;98686.94;6111884;28;97434;-62
2021/09/12 17:43:55;;;;;;;;;16.00;14.50;;;;;27.39;42.85;98687.97;6109671;28;97327;-62
2021/09/12 17:46:58;;;;;;;;;16.20;14.00;;;;;27.28;43.13;98691.47;6111092;28;97670;-63
2021/09/12 17:50:01;;;;;;;;;15.00;14.00;;;;;27.18;43.34;98689.91;6107405;28;96714;-60
2021/09/12 17:53:05;;;;;;;;;15.40;13.00;;;;;27.03;43.80;98687.72;6111113;28;97261;-62
2021/09/12 17:56:08;;;;;;;;;15.00;13.25;;;;;26.84;44.23;98688.13;6110667;28;97304;-62
2021/09/12 17:59:14;;;;;;;;;14.00;13.00;;;;;26.78;44.34;98686.69;6111980;28;96753;-62
2021/09/12 18:02:17;;;;;;;;;12.75;10.75;;;;;26.70;44.92;98690.31;6106814;28;97474;-61
2021/09/12 18:05:21;;;;;;;;;15.00;12.00;;;;;26.53;44.67;98668.28;6112637;28;96737;-61
2021/09/12 18:08:24;;;;;;;;;16.00;14.00;;;;;26.51;45.22;98684.38;6079268;28;98555;-63
2021/09/12 18:11:28;;;;;;;;;14.80;13.00;;;;;26.39;45.39;98689.81;6112344;28;97486;-62
2021/09/12 18:14:32;;;;;;;;;19.00;18.00;;;;;26.24;45.94;98691.13;6113032;28;97479;-62
2021/09/12 18:17:36;;;;;;;;;18.00;17.00;;;;;26.18;45.86;98692.41;6094572;28;97424;-61
2021/09/12 18:20:39;;;;;;;;;19.40;17.40;;;;;26.13;45.96;98689.81;6092703;28;96806;-61
2021/09/12 18:23:43;;;;;;;;;17.00;16.00;;;;;26.06;46.08;98682.03;6075279;28;98575;-62
2021/09/12 18:26:46;;;;;;;;;16.00;16.00;;;;;26.09;45.93;98694.38;6107146;28;98084;-61
2021/09/12 18:29:51;;;;;;;;;19.20;18.20;;;;;26.07;46.12;98696.66;6093872;28;97584;-61